sensor_id;sensor_type;location;lat;lon;timestamp;P1;durP1;ratioP1;P2;durP2;ratioP2
51296;SDS011;37380;45.186;9.792;2024-01-11T00:02:12;43.08;;;32.13;;
51296;SDS011;37380;45.186;9.792;2024-01-11T00:04:39;46.10;;;33.28;;
51296;SDS011;37380;45.186;9.792;2024-01-11T00:07:07;43.58;;;34.45;;
51296;SDS011;37380;45.186;9.792;2024-01-11T00:09:38;44.08;;;32.88;;
51296;SDS011;37380;45.186;9.792;2024-01-11T00:12:06;53.33;;;34.85;;
51296;SDS011;37380;45.186;9.792;2024-01-11T00:14:33;44.20;;;33.33;;
51296;SDS011;37380;45.186;9.792;2024-01-11T00:17:00;37.55;;;32.78;;
51296;SDS011;37380;45.186;9.792;2024-01-11T00:19:27;40.70;;;30.70;;
51296;SDS011;37380;45.186;9.792;2024-01-11T00:21:54;41.85;;;29.77;;
51296;SDS011;37380;45.186;9.792;2024-01-11T00:24:21;44.85;;;34.28;;
51296;SDS011;37380;45.186;9.792;2024-01-11T00:26:48;42.72;;;32.20;;
51296;SDS011;37380;45.186;9.792;2024-01-11T00:29:15;37.65;;;29.80;;
51296;SDS011;37380;45.186;9.792;2024-01-11T00:31:42;47.58;;;33.60;;
51296;SDS011;37380;45.186;9.792;2024-01-11T00:34:09;45.20;;;32.80;;
51296;SDS011;37380;45.186;9.792;2024-01-11T00:36:36;40.30;;;30.33;;
51296;SDS011;37380;45.186;9.792;2024-01-11T00:39:03;39.83;;;32.10;;
51296;SDS011;37380;45.186;9.792;2024-01-11T00:41:30;38.58;;;30.92;;
51296;SDS011;37380;45.186;9.792;2024-01-11T00:43:57;47.25;;;32.65;;
51296;SDS011;37380;45.186;9.792;2024-01-11T00:46:24;48.50;;;35.92;;
51296;SDS011;37380;45.186;9.792;2024-01-11T00:48:51;42.63;;;33.33;;
51296;SDS011;37380;45.186;9.792;2024-01-11T00:51:22;41.92;;;29.90;;
51296;SDS011;37380;45.186;9.792;2024-01-11T00:53:48;42.72;;;32.63;;
51296;SDS011;37380;45.186;9.792;2024-01-11T00:56:19;47.92;;;34.47;;
51296;SDS011;37380;45.186;9.792;2024-01-11T00:58:49;41.88;;;33.00;;
51296;SDS011;37380;45.186;9.792;2024-01-11T01:01:16;43.35;;;32.55;;
51296;SDS011;37380;45.186;9.792;2024-01-11T01:03:44;39.58;;;30.98;;
51296;SDS011;37380;45.186;9.792;2024-01-11T01:06:11;43.47;;;30.30;;
51296;SDS011;37380;45.186;9.792;2024-01-11T01:08:38;46.80;;;34.40;;
51296;SDS011;37380;45.186;9.792;2024-01-11T01:11:05;49.33;;;31.33;;
51296;SDS011;37380;45.186;9.792;2024-01-11T01:13:32;53.60;;;38.35;;
51296;SDS011;37380;45.186;9.792;2024-01-11T01:15:59;43.97;;;35.17;;
51296;SDS011;37380;45.186;9.792;2024-01-11T01:18:26;46.53;;;33.25;;
51296;SDS011;37380;45.186;9.792;2024-01-11T01:20:53;41.78;;;32.95;;
51296;SDS011;37380;45.186;9.792;2024-01-11T01:23:20;41.03;;;31.42;;
51296;SDS011;37380;45.186;9.792;2024-01-11T01:25:47;40.42;;;31.67;;
51296;SDS011;37380;45.186;9.792;2024-01-11T01:28:17;36.88;;;27.02;;
51296;SDS011;37380;45.186;9.792;2024-01-11T01:30:44;43.80;;;31.73;;
51296;SDS011;37380;45.186;9.792;2024-01-11T01:33:11;41.10;;;32.60;;
51296;SDS011;37380;45.186;9.792;2024-01-11T01:35:38;42.30;;;31.70;;
51296;SDS011;37380;45.186;9.792;2024-01-11T01:38:05;51.35;;;31.50;;
51296;SDS011;37380;45.186;9.792;2024-01-11T01:40:32;44.97;;;31.15;;
51296;SDS011;37380;45.186;9.792;2024-01-11T01:42:59;45.03;;;30.90;;
51296;SDS011;37380;45.186;9.792;2024-01-11T01:45:26;38.90;;;30.92;;
51296;SDS011;37380;45.186;9.792;2024-01-11T01:47:54;46.97;;;34.30;;
51296;SDS011;37380;45.186;9.792;2024-01-11T01:50:22;40.38;;;30.95;;
51296;SDS011;37380;45.186;9.792;2024-01-11T01:52:52;48.22;;;32.10;;
51296;SDS011;37380;45.186;9.792;2024-01-11T01:55:20;46.33;;;35.58;;
51296;SDS011;37380;45.186;9.792;2024-01-11T01:57:47;42.72;;;31.70;;
51296;SDS011;37380;45.186;9.792;2024-01-11T02:00:15;40.63;;;31.17;;
51296;SDS011;37380;45.186;9.792;2024-01-11T02:02:43;42.63;;;32.97;;
51296;SDS011;37380;45.186;9.792;2024-01-11T02:05:14;43.10;;;31.80;;
51296;SDS011;37380;45.186;9.792;2024-01-11T02:07:43;51.92;;;33.38;;
51296;SDS011;37380;45.186;9.792;2024-01-11T02:10:10;44.70;;;34.15;;
51296;SDS011;37380;45.186;9.792;2024-01-11T02:12:38;46.35;;;34.25;;
51296;SDS011;37380;45.186;9.792;2024-01-11T02:15:06;47.65;;;30.25;;
51296;SDS011;37380;45.186;9.792;2024-01-11T02:17:33;44.85;;;33.22;;
51296;SDS011;37380;45.186;9.792;2024-01-11T02:20:01;43.40;;;31.50;;
51296;SDS011;37380;45.186;9.792;2024-01-11T02:22:38;47.20;;;32.33;;
51296;SDS011;37380;45.186;9.792;2024-01-11T02:25:07;47.97;;;34.25;;
51296;SDS011;37380;45.186;9.792;2024-01-11T02:27:47;43.38;;;32.78;;
51296;SDS011;37380;45.186;9.792;2024-01-11T02:30:15;45.10;;;32.25;;
51296;SDS011;37380;45.186;9.792;2024-01-11T02:32:43;48.63;;;31.73;;
51296;SDS011;37380;45.186;9.792;2024-01-11T02:35:14;46.33;;;32.35;;
51296;SDS011;37380;45.186;9.792;2024-01-11T02:37:42;53.97;;;32.83;;
51296;SDS011;37380;45.186;9.792;2024-01-11T02:40:10;34.38;;;30.17;;
51296;SDS011;37380;45.186;9.792;2024-01-11T02:42:39;39.53;;;31.48;;
51296;SDS011;37380;45.186;9.792;2024-01-11T02:45:06;37.67;;;29.40;;
51296;SDS011;37380;45.186;9.792;2024-01-11T02:47:36;36.53;;;30.48;;
51296;SDS011;37380;45.186;9.792;2024-01-11T02:50:04;46.03;;;29.50;;
51296;SDS011;37380;45.186;9.792;2024-01-11T02:52:32;40.25;;;29.77;;
51296;SDS011;37380;45.186;9.792;2024-01-11T02:54:59;42.88;;;31.02;;
51296;SDS011;37380;45.186;9.792;2024-01-11T02:57:25;37.50;;;26.90;;
51296;SDS011;37380;45.186;9.792;2024-01-11T02:59:53;38.20;;;25.67;;
51296;SDS011;37380;45.186;9.792;2024-01-11T03:02:20;39.55;;;28.48;;
51296;SDS011;37380;45.186;9.792;2024-01-11T03:04:51;47.60;;;30.65;;
51296;SDS011;37380;45.186;9.792;2024-01-11T03:07:18;29.60;;;25.17;;
51296;SDS011;37380;45.186;9.792;2024-01-11T03:09:45;36.20;;;28.15;;
51296;SDS011;37380;45.186;9.792;2024-01-11T03:12:12;35.70;;;26.63;;
51296;SDS011;37380;45.186;9.792;2024-01-11T03:14:39;49.58;;;34.45;;
51296;SDS011;37380;45.186;9.792;2024-01-11T03:17:06;51.05;;;36.45;;
51296;SDS011;37380;45.186;9.792;2024-01-11T03:19:33;43.17;;;34.35;;
51296;SDS011;37380;45.186;9.792;2024-01-11T03:22:00;43.58;;;33.22;;
51296;SDS011;37380;45.186;9.792;2024-01-11T03:24:32;47.22;;;32.50;;
51296;SDS011;37380;45.186;9.792;2024-01-11T03:26:59;41.90;;;33.80;;
51296;SDS011;37380;45.186;9.792;2024-01-11T03:29:26;44.65;;;32.47;;
51296;SDS011;37380;45.186;9.792;2024-01-11T03:31:53;43.90;;;32.55;;
51296;SDS011;37380;45.186;9.792;2024-01-11T03:34:21;45.55;;;34.53;;
51296;SDS011;37380;45.186;9.792;2024-01-11T03:36:48;51.80;;;35.15;;
51296;SDS011;37380;45.186;9.792;2024-01-11T03:39:15;58.03;;;34.22;;
51296;SDS011;37380;45.186;9.792;2024-01-11T03:41:45;48.10;;;35.13;;
51296;SDS011;37380;45.186;9.792;2024-01-11T03:44:12;43.38;;;33.63;;
51296;SDS011;37380;45.186;9.792;2024-01-11T03:46:39;47.95;;;36.63;;
51296;SDS011;37380;45.186;9.792;2024-01-11T03:49:06;52.97;;;36.35;;
51296;SDS011;37380;45.186;9.792;2024-01-11T03:51:34;46.45;;;35.78;;
51296;SDS011;37380;45.186;9.792;2024-01-11T03:54:02;47.35;;;38.65;;
51296;SDS011;37380;45.186;9.792;2024-01-11T03:56:29;51.45;;;35.85;;
51296;SDS011;37380;45.186;9.792;2024-01-11T03:58:57;56.90;;;40.47;;
51296;SDS011;37380;45.186;9.792;2024-01-11T04:01:24;55.35;;;40.90;;
51296;SDS011;37380;45.186;9.792;2024-01-11T04:03:51;58.33;;;39.95;;
51296;SDS011;37380;45.186;9.792;2024-01-11T04:06:19;52.50;;;40.25;;
51296;SDS011;37380;45.186;9.792;2024-01-11T04:08:48;54.10;;;41.00;;
51296;SDS011;37380;45.186;9.792;2024-01-11T04:11:15;54.45;;;40.47;;
51296;SDS011;37380;45.186;9.792;2024-01-11T04:13:43;65.55;;;40.72;;
51296;SDS011;37380;45.186;9.792;2024-01-11T04:16:10;58.40;;;42.10;;
51296;SDS011;37380;45.186;9.792;2024-01-11T04:18:37;56.85;;;43.65;;
51296;SDS011;37380;45.186;9.792;2024-01-11T04:21:04;57.88;;;42.10;;
51296;SDS011;37380;45.186;9.792;2024-01-11T04:23:31;52.88;;;40.47;;
51296;SDS011;37380;45.186;9.792;2024-01-11T04:25:59;51.90;;;38.08;;
51296;SDS011;37380;45.186;9.792;2024-01-11T04:28:26;57.70;;;41.88;;
51296;SDS011;37380;45.186;9.792;2024-01-11T04:30:53;48.65;;;39.72;;
51296;SDS011;37380;45.186;9.792;2024-01-11T04:33:20;57.92;;;38.80;;
51296;SDS011;37380;45.186;9.792;2024-01-11T04:35:47;56.25;;;40.42;;
51296;SDS011;37380;45.186;9.792;2024-01-11T04:38:14;53.55;;;40.83;;
51296;SDS011;37380;45.186;9.792;2024-01-11T04:40:41;62.40;;;42.85;;
51296;SDS011;37380;45.186;9.792;2024-01-11T04:43:08;59.85;;;43.50;;
51296;SDS011;37380;45.186;9.792;2024-01-11T04:45:35;61.50;;;41.90;;
51296;SDS011;37380;45.186;9.792;2024-01-11T04:48:02;54.75;;;39.25;;
51296;SDS011;37380;45.186;9.792;2024-01-11T04:50:30;53.95;;;39.88;;
51296;SDS011;37380;45.186;9.792;2024-01-11T04:52:58;59.45;;;39.35;;
51296;SDS011;37380;45.186;9.792;2024-01-11T04:55:24;55.22;;;40.83;;
51296;SDS011;37380;45.186;9.792;2024-01-11T04:57:51;57.83;;;41.03;;
51296;SDS011;37380;45.186;9.792;2024-01-11T05:00:18;55.92;;;41.17;;
51296;SDS011;37380;45.186;9.792;2024-01-11T05:02:45;51.22;;;36.70;;
51296;SDS011;37380;45.186;9.792;2024-01-11T05:05:12;54.70;;;39.38;;
51296;SDS011;37380;45.186;9.792;2024-01-11T05:07:40;53.08;;;38.70;;
51296;SDS011;37380;45.186;9.792;2024-01-11T05:10:07;61.03;;;38.95;;
51296;SDS011;37380;45.186;9.792;2024-01-11T05:12:34;51.03;;;39.25;;
51296;SDS011;37380;45.186;9.792;2024-01-11T05:15:05;56.95;;;38.33;;
51296;SDS011;37380;45.186;9.792;2024-01-11T05:17:35;54.45;;;35.28;;
51296;SDS011;37380;45.186;9.792;2024-01-11T05:20:02;49.22;;;36.42;;
51296;SDS011;37380;45.186;9.792;2024-01-11T05:22:29;47.20;;;34.65;;
51296;SDS011;37380;45.186;9.792;2024-01-11T05:24:56;44.08;;;32.15;;
51296;SDS011;37380;45.186;9.792;2024-01-11T05:27:23;60.90;;;35.42;;
51296;SDS011;37380;45.186;9.792;2024-01-11T05:29:51;60.40;;;36.42;;
51296;SDS011;37380;45.186;9.792;2024-01-11T05:32:18;52.75;;;31.52;;
51296;SDS011;37380;45.186;9.792;2024-01-11T05:34:45;44.33;;;33.33;;
51296;SDS011;37380;45.186;9.792;2024-01-11T05:37:12;37.97;;;30.45;;
51296;SDS011;37380;45.186;9.792;2024-01-11T05:39:39;45.63;;;32.72;;
51296;SDS011;37380;45.186;9.792;2024-01-11T05:42:06;41.25;;;32.05;;
51296;SDS011;37380;45.186;9.792;2024-01-11T05:44:33;47.53;;;32.30;;
51296;SDS011;37380;45.186;9.792;2024-01-11T05:47:00;38.30;;;29.55;;
51296;SDS011;37380;45.186;9.792;2024-01-11T05:49:27;40.13;;;29.67;;
51296;SDS011;37380;45.186;9.792;2024-01-11T05:51:54;46.03;;;30.98;;
51296;SDS011;37380;45.186;9.792;2024-01-11T05:54:23;42.63;;;31.50;;
51296;SDS011;37380;45.186;9.792;2024-01-11T05:56:50;42.83;;;34.05;;
51296;SDS011;37380;45.186;9.792;2024-01-11T05:59:22;51.08;;;33.10;;
51296;SDS011;37380;45.186;9.792;2024-01-11T06:01:49;41.65;;;33.42;;
51296;SDS011;37380;45.186;9.792;2024-01-11T06:04:16;48.72;;;34.75;;
51296;SDS011;37380;45.186;9.792;2024-01-11T06:06:43;51.83;;;37.70;;
51296;SDS011;37380;45.186;9.792;2024-01-11T06:09:10;52.00;;;37.47;;
51296;SDS011;37380;45.186;9.792;2024-01-11T06:11:37;51.65;;;37.53;;
51296;SDS011;37380;45.186;9.792;2024-01-11T06:14:04;51.60;;;37.85;;
51296;SDS011;37380;45.186;9.792;2024-01-11T06:16:31;52.25;;;38.85;;
51296;SDS011;37380;45.186;9.792;2024-01-11T06:18:58;64.68;;;38.78;;
51296;SDS011;37380;45.186;9.792;2024-01-11T06:21:25;61.50;;;37.53;;
51296;SDS011;37380;45.186;9.792;2024-01-11T06:23:52;62.78;;;38.00;;
51296;SDS011;37380;45.186;9.792;2024-01-11T06:26:19;76.97;;;37.67;;
51296;SDS011;37380;45.186;9.792;2024-01-11T06:28:46;52.40;;;37.30;;
51296;SDS011;37380;45.186;9.792;2024-01-11T06:31:13;53.35;;;38.70;;
51296;SDS011;37380;45.186;9.792;2024-01-11T06:33:40;63.92;;;41.60;;
51296;SDS011;37380;45.186;9.792;2024-01-11T06:36:07;54.35;;;37.95;;
51296;SDS011;37380;45.186;9.792;2024-01-11T06:38:34;48.20;;;35.15;;
51296;SDS011;37380;45.186;9.792;2024-01-11T06:41:02;53.40;;;34.22;;
51296;SDS011;37380;45.186;9.792;2024-01-11T06:43:30;43.80;;;34.88;;
51296;SDS011;37380;45.186;9.792;2024-01-11T06:46:01;55.40;;;40.35;;
51296;SDS011;37380;45.186;9.792;2024-01-11T06:48:29;57.65;;;41.25;;
51296;SDS011;37380;45.186;9.792;2024-01-11T06:50:57;57.88;;;38.38;;
51296;SDS011;37380;45.186;9.792;2024-01-11T06:53:27;50.60;;;37.38;;
51296;SDS011;37380;45.186;9.792;2024-01-11T06:55:55;56.03;;;36.03;;
51296;SDS011;37380;45.186;9.792;2024-01-11T06:58:22;46.60;;;34.88;;
51296;SDS011;37380;45.186;9.792;2024-01-11T07:00:49;54.35;;;37.70;;
51296;SDS011;37380;45.186;9.792;2024-01-11T07:03:19;56.90;;;37.85;;
51296;SDS011;37380;45.186;9.792;2024-01-11T07:05:46;54.65;;;35.30;;
51296;SDS011;37380;45.186;9.792;2024-01-11T07:08:13;53.50;;;38.03;;
51296;SDS011;37380;45.186;9.792;2024-01-11T07:10:41;50.00;;;36.35;;
51296;SDS011;37380;45.186;9.792;2024-01-11T07:13:08;48.40;;;35.60;;
51296;SDS011;37380;45.186;9.792;2024-01-11T07:15:37;54.58;;;34.80;;
51296;SDS011;37380;45.186;9.792;2024-01-11T07:18:04;51.35;;;35.42;;
51296;SDS011;37380;45.186;9.792;2024-01-11T07:20:32;74.68;;;38.08;;
51296;SDS011;37380;45.186;9.792;2024-01-11T07:23:00;53.83;;;38.53;;
51296;SDS011;37380;45.186;9.792;2024-01-11T07:25:27;50.95;;;37.83;;
51296;SDS011;37380;45.186;9.792;2024-01-11T07:27:54;57.58;;;38.88;;
51296;SDS011;37380;45.186;9.792;2024-01-11T07:30:22;54.78;;;39.78;;
51296;SDS011;37380;45.186;9.792;2024-01-11T07:32:49;50.28;;;35.78;;
51296;SDS011;37380;45.186;9.792;2024-01-11T07:35:16;57.15;;;36.15;;
51296;SDS011;37380;45.186;9.792;2024-01-11T07:37:45;57.65;;;38.38;;
51296;SDS011;37380;45.186;9.792;2024-01-11T07:40:12;51.60;;;39.92;;
51296;SDS011;37380;45.186;9.792;2024-01-11T07:42:40;50.58;;;37.03;;
51296;SDS011;37380;45.186;9.792;2024-01-11T07:45:09;54.40;;;37.25;;
51296;SDS011;37380;45.186;9.792;2024-01-11T07:47:37;55.05;;;35.92;;
51296;SDS011;37380;45.186;9.792;2024-01-11T07:50:04;54.10;;;35.15;;
51296;SDS011;37380;45.186;9.792;2024-01-11T07:52:33;46.67;;;35.30;;
51296;SDS011;37380;45.186;9.792;2024-01-11T07:55:00;51.17;;;37.15;;
51296;SDS011;37380;45.186;9.792;2024-01-11T07:57:33;55.33;;;36.28;;
51296;SDS011;37380;45.186;9.792;2024-01-11T08:00:00;55.40;;;38.60;;
51296;SDS011;37380;45.186;9.792;2024-01-11T08:02:38;55.33;;;38.78;;
51296;SDS011;37380;45.186;9.792;2024-01-11T08:05:06;56.85;;;37.53;;
51296;SDS011;37380;45.186;9.792;2024-01-11T08:07:34;46.10;;;35.17;;
51296;SDS011;37380;45.186;9.792;2024-01-11T08:10:01;49.53;;;34.92;;
51296;SDS011;37380;45.186;9.792;2024-01-11T08:12:32;58.17;;;33.63;;
51296;SDS011;37380;45.186;9.792;2024-01-11T08:14:59;45.22;;;34.83;;
51296;SDS011;37380;45.186;9.792;2024-01-11T08:17:26;51.13;;;36.58;;
51296;SDS011;37380;45.186;9.792;2024-01-11T08:19:53;51.45;;;36.92;;
51296;SDS011;37380;45.186;9.792;2024-01-11T08:22:22;45.63;;;33.15;;
51296;SDS011;37380;45.186;9.792;2024-01-11T08:24:53;45.33;;;31.52;;
51296;SDS011;37380;45.186;9.792;2024-01-11T08:27:20;49.05;;;33.15;;
51296;SDS011;37380;45.186;9.792;2024-01-11T08:29:47;51.70;;;36.85;;
51296;SDS011;37380;45.186;9.792;2024-01-11T08:32:14;43.03;;;31.70;;
51296;SDS011;37380;45.186;9.792;2024-01-11T08:34:56;42.17;;;31.48;;
51296;SDS011;37380;45.186;9.792;2024-01-11T08:37:24;47.38;;;33.67;;
51296;SDS011;37380;45.186;9.792;2024-01-11T08:39:52;52.55;;;33.03;;
51296;SDS011;37380;45.186;9.792;2024-01-11T08:42:19;46.17;;;31.60;;
51296;SDS011;37380;45.186;9.792;2024-01-11T08:44:46;47.72;;;33.35;;
51296;SDS011;37380;45.186;9.792;2024-01-11T08:47:14;40.10;;;30.90;;
51296;SDS011;37380;45.186;9.792;2024-01-11T08:49:41;40.70;;;31.23;;
51296;SDS011;37380;45.186;9.792;2024-01-11T08:52:09;43.38;;;32.38;;
51296;SDS011;37380;45.186;9.792;2024-01-11T08:54:36;40.17;;;30.20;;
51296;SDS011;37380;45.186;9.792;2024-01-11T08:57:03;47.67;;;29.17;;
51296;SDS011;37380;45.186;9.792;2024-01-11T08:59:31;44.55;;;31.55;;
51296;SDS011;37380;45.186;9.792;2024-01-11T09:01:59;43.30;;;31.75;;
51296;SDS011;37380;45.186;9.792;2024-01-11T09:04:41;55.05;;;33.75;;
51296;SDS011;37380;45.186;9.792;2024-01-11T09:07:08;45.20;;;31.52;;
51296;SDS011;37380;45.186;9.792;2024-01-11T09:09:35;42.70;;;32.00;;
51296;SDS011;37380;45.186;9.792;2024-01-11T09:12:16;51.42;;;32.08;;
51296;SDS011;37380;45.186;9.792;2024-01-11T09:14:43;45.33;;;32.58;;
51296;SDS011;37380;45.186;9.792;2024-01-11T09:17:11;46.25;;;31.83;;
51296;SDS011;37380;45.186;9.792;2024-01-11T09:19:38;50.72;;;34.38;;
51296;SDS011;37380;45.186;9.792;2024-01-11T09:22:07;46.05;;;34.08;;
51296;SDS011;37380;45.186;9.792;2024-01-11T09:24:37;63.40;;;31.73;;
51296;SDS011;37380;45.186;9.792;2024-01-11T09:27:06;46.58;;;33.10;;
51296;SDS011;37380;45.186;9.792;2024-01-11T09:29:33;45.97;;;33.55;;
51296;SDS011;37380;45.186;9.792;2024-01-11T09:32:00;47.17;;;33.13;;
51296;SDS011;37380;45.186;9.792;2024-01-11T09:34:28;45.05;;;31.80;;
51296;SDS011;37380;45.186;9.792;2024-01-11T09:36:55;47.75;;;33.97;;
51296;SDS011;37380;45.186;9.792;2024-01-11T09:39:25;51.88;;;30.83;;
51296;SDS011;37380;45.186;9.792;2024-01-11T09:44:34;44.42;;;30.02;;
51296;SDS011;37380;45.186;9.792;2024-01-11T09:47:01;52.92;;;33.63;;
51296;SDS011;37380;45.186;9.792;2024-01-11T09:49:30;52.28;;;33.67;;
51296;SDS011;37380;45.186;9.792;2024-01-11T09:51:59;45.65;;;32.10;;
51296;SDS011;37380;45.186;9.792;2024-01-11T09:54:28;47.33;;;32.17;;
51296;SDS011;37380;45.186;9.792;2024-01-11T09:56:55;48.17;;;33.13;;
51296;SDS011;37380;45.186;9.792;2024-01-11T09:59:26;44.13;;;33.50;;
51296;SDS011;37380;45.186;9.792;2024-01-11T10:01:53;38.80;;;31.02;;
51296;SDS011;37380;45.186;9.792;2024-01-11T10:04:21;45.95;;;32.28;;
51296;SDS011;37380;45.186;9.792;2024-01-11T10:06:49;44.20;;;31.45;;
51296;SDS011;37380;45.186;9.792;2024-01-11T10:09:18;43.55;;;32.65;;
51296;SDS011;37380;45.186;9.792;2024-01-11T10:11:44;44.58;;;33.03;;
51296;SDS011;37380;45.186;9.792;2024-01-11T10:14:12;51.83;;;30.92;;
51296;SDS011;37380;45.186;9.792;2024-01-11T10:16:43;36.85;;;29.00;;
51296;SDS011;37380;45.186;9.792;2024-01-11T10:19:10;45.20;;;31.00;;
51296;SDS011;37380;45.186;9.792;2024-01-11T10:21:40;43.50;;;30.17;;
51296;SDS011;37380;45.186;9.792;2024-01-11T10:24:07;57.13;;;30.92;;
51296;SDS011;37380;45.186;9.792;2024-01-11T10:26:34;59.00;;;32.75;;
51296;SDS011;37380;45.186;9.792;2024-01-11T10:29:02;44.92;;;32.40;;
51296;SDS011;37380;45.186;9.792;2024-01-11T10:31:30;44.33;;;30.30;;
51296;SDS011;37380;45.186;9.792;2024-01-11T10:33:57;39.63;;;30.33;;
51296;SDS011;37380;45.186;9.792;2024-01-11T10:36:24;45.55;;;30.98;;
51296;SDS011;37380;45.186;9.792;2024-01-11T10:38:52;39.83;;;30.13;;
51296;SDS011;37380;45.186;9.792;2024-01-11T10:41:20;42.78;;;31.52;;
51296;SDS011;37380;45.186;9.792;2024-01-11T10:43:48;42.97;;;29.73;;
51296;SDS011;37380;45.186;9.792;2024-01-11T10:49:22;50.85;;;29.80;;
51296;SDS011;37380;45.186;9.792;2024-01-11T10:52:11;41.92;;;29.75;;
51296;SDS011;37380;45.186;9.792;2024-01-11T10:54:40;38.42;;;29.20;;
51296;SDS011;37380;45.186;9.792;2024-01-11T10:57:08;58.85;;;28.70;;
51296;SDS011;37380;45.186;9.792;2024-01-11T10:59:39;47.80;;;30.58;;
51296;SDS011;37380;45.186;9.792;2024-01-11T11:02:10;40.22;;;28.15;;
51296;SDS011;37380;45.186;9.792;2024-01-11T11:04:40;41.60;;;28.58;;
51296;SDS011;37380;45.186;9.792;2024-01-11T11:07:08;37.25;;;27.58;;
51296;SDS011;37380;45.186;9.792;2024-01-11T11:09:36;46.65;;;29.48;;
51296;SDS011;37380;45.186;9.792;2024-01-11T11:12:05;44.35;;;27.95;;
51296;SDS011;37380;45.186;9.792;2024-01-11T11:14:34;37.45;;;27.23;;
51296;SDS011;37380;45.186;9.792;2024-01-11T11:17:02;42.40;;;27.17;;
51296;SDS011;37380;45.186;9.792;2024-01-11T11:19:31;41.20;;;27.02;;
51296;SDS011;37380;45.186;9.792;2024-01-11T11:21:58;44.80;;;29.85;;
51296;SDS011;37380;45.186;9.792;2024-01-11T11:24:25;39.88;;;27.67;;
51296;SDS011;37380;45.186;9.792;2024-01-11T11:26:52;40.65;;;30.05;;
51296;SDS011;37380;45.186;9.792;2024-01-11T11:29:19;42.20;;;29.95;;
51296;SDS011;37380;45.186;9.792;2024-01-11T11:31:47;42.88;;;29.25;;
51296;SDS011;37380;45.186;9.792;2024-01-11T11:34:14;41.63;;;28.90;;
51296;SDS011;37380;45.186;9.792;2024-01-11T11:36:44;45.78;;;28.83;;
51296;SDS011;37380;45.186;9.792;2024-01-11T11:39:16;38.35;;;28.73;;
51296;SDS011;37380;45.186;9.792;2024-01-11T11:41:47;58.63;;;28.50;;
51296;SDS011;37380;45.186;9.792;2024-01-11T11:44:16;38.92;;;29.05;;
51296;SDS011;37380;45.186;9.792;2024-01-11T11:46:44;43.83;;;28.23;;
51296;SDS011;37380;45.186;9.792;2024-01-11T11:49:11;34.97;;;27.15;;
51296;SDS011;37380;45.186;9.792;2024-01-11T11:51:40;42.92;;;29.75;;
51296;SDS011;37380;45.186;9.792;2024-01-11T11:54:11;39.20;;;29.77;;
51296;SDS011;37380;45.186;9.792;2024-01-11T11:56:41;39.40;;;27.58;;
51296;SDS011;37380;45.186;9.792;2024-01-11T11:59:08;33.63;;;27.27;;
51296;SDS011;37380;45.186;9.792;2024-01-11T12:01:37;40.08;;;27.80;;
51296;SDS011;37380;45.186;9.792;2024-01-11T12:04:07;39.97;;;28.67;;
51296;SDS011;37380;45.186;9.792;2024-01-11T12:06:34;42.42;;;27.90;;
51296;SDS011;37380;45.186;9.792;2024-01-11T12:09:02;39.13;;;29.38;;
51296;SDS011;37380;45.186;9.792;2024-01-11T12:11:30;47.33;;;30.90;;
51296;SDS011;37380;45.186;9.792;2024-01-11T12:13:58;36.63;;;26.90;;
51296;SDS011;37380;45.186;9.792;2024-01-11T12:16:25;38.15;;;26.98;;
51296;SDS011;37380;45.186;9.792;2024-01-11T12:18:54;45.13;;;26.10;;
51296;SDS011;37380;45.186;9.792;2024-01-11T12:21:21;40.80;;;25.45;;
51296;SDS011;37380;45.186;9.792;2024-01-11T12:23:48;34.15;;;25.17;;
51296;SDS011;37380;45.186;9.792;2024-01-11T12:26:16;39.35;;;28.45;;
51296;SDS011;37380;45.186;9.792;2024-01-11T12:28:49;33.40;;;26.55;;
51296;SDS011;37380;45.186;9.792;2024-01-11T12:31:17;37.03;;;29.30;;
51296;SDS011;37380;45.186;9.792;2024-01-11T12:33:46;42.15;;;28.38;;
51296;SDS011;37380;45.186;9.792;2024-01-11T12:36:15;38.38;;;28.55;;
51296;SDS011;37380;45.186;9.792;2024-01-11T12:38:46;42.22;;;31.92;;
51296;SDS011;37380;45.186;9.792;2024-01-11T12:41:19;37.55;;;28.67;;
51296;SDS011;37380;45.186;9.792;2024-01-11T12:43:48;34.55;;;28.20;;
51296;SDS011;37380;45.186;9.792;2024-01-11T12:46:15;39.53;;;27.63;;
51296;SDS011;37380;45.186;9.792;2024-01-11T12:48:43;36.42;;;28.00;;
51296;SDS011;37380;45.186;9.792;2024-01-11T12:51:11;44.40;;;30.73;;
51296;SDS011;37380;45.186;9.792;2024-01-11T12:53:47;44.80;;;31.30;;
51296;SDS011;37380;45.186;9.792;2024-01-11T12:56:15;43.67;;;28.77;;
51296;SDS011;37380;45.186;9.792;2024-01-11T12:58:42;44.00;;;34.45;;
51296;SDS011;37380;45.186;9.792;2024-01-11T13:01:09;48.28;;;31.20;;
51296;SDS011;37380;45.186;9.792;2024-01-11T13:03:38;44.53;;;30.38;;
51296;SDS011;37380;45.186;9.792;2024-01-11T13:06:07;42.50;;;29.88;;
51296;SDS011;37380;45.186;9.792;2024-01-11T13:08:36;43.40;;;31.75;;
51296;SDS011;37380;45.186;9.792;2024-01-11T13:11:06;40.83;;;30.65;;
51296;SDS011;37380;45.186;9.792;2024-01-11T13:13:36;41.90;;;30.45;;
51296;SDS011;37380;45.186;9.792;2024-01-11T13:16:03;46.80;;;32.25;;
51296;SDS011;37380;45.186;9.792;2024-01-11T13:18:39;44.97;;;31.08;;
51296;SDS011;37380;45.186;9.792;2024-01-11T13:21:06;43.78;;;30.52;;
51296;SDS011;37380;45.186;9.792;2024-01-11T13:23:36;46.97;;;29.88;;
51296;SDS011;37380;45.186;9.792;2024-01-11T13:26:05;54.45;;;31.10;;
51296;SDS011;37380;45.186;9.792;2024-01-11T13:28:34;43.28;;;30.63;;
51296;SDS011;37380;45.186;9.792;2024-01-11T13:31:01;43.25;;;29.60;;
51296;SDS011;37380;45.186;9.792;2024-01-11T13:33:29;45.53;;;32.35;;
51296;SDS011;37380;45.186;9.792;2024-01-11T13:35:59;44.30;;;31.05;;
51296;SDS011;37380;45.186;9.792;2024-01-11T13:38:26;46.15;;;32.67;;
51296;SDS011;37380;45.186;9.792;2024-01-11T13:40:53;39.17;;;29.42;;
51296;SDS011;37380;45.186;9.792;2024-01-11T13:43:21;43.70;;;30.60;;
51296;SDS011;37380;45.186;9.792;2024-01-11T13:45:48;38.65;;;28.42;;
51296;SDS011;37380;45.186;9.792;2024-01-11T13:48:15;41.38;;;29.50;;
51296;SDS011;37380;45.186;9.792;2024-01-11T13:50:42;42.15;;;32.10;;
51296;SDS011;37380;45.186;9.792;2024-01-11T13:53:10;44.92;;;30.73;;
51296;SDS011;37380;45.186;9.792;2024-01-11T13:55:38;39.95;;;30.50;;
51296;SDS011;37380;45.186;9.792;2024-01-11T13:58:07;48.80;;;30.60;;
51296;SDS011;37380;45.186;9.792;2024-01-11T14:00:34;47.40;;;30.88;;
51296;SDS011;37380;45.186;9.792;2024-01-11T14:03:02;39.40;;;30.30;;
51296;SDS011;37380;45.186;9.792;2024-01-11T14:05:33;52.88;;;31.83;;
51296;SDS011;37380;45.186;9.792;2024-01-11T14:08:02;44.33;;;32.95;;
51296;SDS011;37380;45.186;9.792;2024-01-11T14:10:32;50.85;;;30.90;;
51296;SDS011;37380;45.186;9.792;2024-01-11T14:13:00;46.47;;;33.75;;
51296;SDS011;37380;45.186;9.792;2024-01-11T14:15:32;36.58;;;29.63;;
51296;SDS011;37380;45.186;9.792;2024-01-11T14:18:00;45.00;;;31.33;;
51296;SDS011;37380;45.186;9.792;2024-01-11T14:20:27;42.15;;;31.67;;
51296;SDS011;37380;45.186;9.792;2024-01-11T14:22:55;41.85;;;32.38;;
51296;SDS011;37380;45.186;9.792;2024-01-11T14:25:23;47.25;;;30.98;;
51296;SDS011;37380;45.186;9.792;2024-01-11T14:27:51;51.17;;;33.33;;
51296;SDS011;37380;45.186;9.792;2024-01-11T14:30:20;49.40;;;32.10;;
51296;SDS011;37380;45.186;9.792;2024-01-11T14:32:49;40.42;;;32.60;;